Snow/Ice From: 17-12-2017 10:00 Until: 18-12-2017 06:00 warning for: Snow/Ice Level: Yellow info button

Although rather usual in this region, locally or potentially dangerous phenomena are expected. (such as local winds, summer thunderstorms, rising streams or high waves) Be aware and pay attention to the latest weather updates, especially if you carry out activities exposed to weather or close to a stream or shoreline. 


Meteo18 Weather Cam more information Meteo18 Weather Cam


Thunder radar more information blitzortung!


warning for Snow/Ice more information rain snow radar


Visit our other weather sites:

Template documentation
and downloads

And another site



Weather Underground History page Text

Daily Summary for April 27, 2017 Units:  Both    English   Metric
« Previous Day
Next Day »
Daily Weekly Monthly Yearly Custom
  High: Low: Average:
Temperature: 52 °F /  11.1 °C 35.6 °F /  2.0 °C 42.4 °F /  5.8 °C
Dew Point: 38.1 °F /  3.4 °C 28.6 °F /  -1.9 °C 33.4 °F /  0.8 °C
Humidity: 93 % 41 % 72 %
Wind Speed: 15 mph /  24.1 km/h - 3.5 mph /  5.7 km/h
Wind Gust: 19 mph /  30.6 km/h - -
Wind:- - WSW
Pressure: 30.1 in /  1018.8 hPa 30 in /  1016.5 hPa -
Precipitation: 0 in /  0.0 mm    
Historical Graphs
 
 
Tabular Data for April 27, 2017
Time Temperature Dew Point Pressure Wind Wind Speed Wind Gust Humidity Rainfall Rate (Hourly)
00:02 38.8 °F /  3.8 °C 34.2 °F /  1.2 °C 30 in /  1017.2 hPa WNW 1 mph /  1.6 km/h 5 mph /  8.0 km/h 83 % 0 in /  0.0 mm
00:07 38.7 °F /  3.7 °C 34.2 °F /  1.2 °C 30 in /  1017.2 hPa WNW 1 mph /  1.6 km/h 4 mph /  6.4 km/h 84 % 0 in /  0.0 mm
00:12 38.5 °F /  3.6 °C 34.2 °F /  1.2 °C 30 in /  1017.2 hPa WNW 1 mph /  1.6 km/h 4 mph /  6.4 km/h 84 % 0 in /  0.0 mm
00:17 38.3 °F /  3.5 °C 34 °F /  1.1 °C 30 in /  1017.2 hPa Calm   3 mph /  4.8 km/h 84 % 0 in /  0.0 mm
00:22 38.1 °F /  3.4 °C 34 °F /  1.1 °C 30 in /  1017.2 hPa Calm   3 mph /  4.8 km/h 85 % 0 in /  0.0 mm
00:32 37.9 °F /  3.3 °C 33.8 °F /  1.0 °C 30 in /  1017.2 hPa Calm   2 mph /  3.2 km/h 85 % 0 in /  0.0 mm
00:42 37.8 °F /  3.2 °C 33.6 °F /  0.9 °C 30 in /  1017.2 hPa WNW 1 mph /  1.6 km/h 2 mph /  3.2 km/h 85 % 0 in /  0.0 mm
00:47 37.6 °F /  3.1 °C 33.4 °F /  0.8 °C 30.1 in /  1017.5 hPa NW 1 mph /  1.6 km/h 2 mph /  3.2 km/h 85 % 0 in /  0.0 mm
00:52 37.6 °F /  3.1 °C 33.8 °F /  1.0 °C 30 in /  1017.2 hPa NNW 1 mph /  1.6 km/h 2 mph /  3.2 km/h 86 % 0 in /  0.0 mm
00:57 37.6 °F /  3.1 °C 33.8 °F /  1.0 °C 30 in /  1017.2 hPa Calm   2 mph /  3.2 km/h 86 % 0 in /  0.0 mm
01:02 37.6 °F /  3.1 °C 33.8 °F /  1.0 °C 30.1 in /  1017.5 hPa NW 1 mph /  1.6 km/h 2 mph /  3.2 km/h 86 % 0 in /  0.0 mm
01:12 37.6 °F /  3.1 °C 34 °F /  1.1 °C 30 in /  1017.2 hPa NW 1 mph /  1.6 km/h 3 mph /  4.8 km/h 87 % 0 in /  0.0 mm
01:17 37.6 °F /  3.1 °C 34 °F /  1.1 °C 30 in /  1017.2 hPa Calm   3 mph /  4.8 km/h 87 % 0 in /  0.0 mm
01:22 37.6 °F /  3.1 °C 34 °F /  1.1 °C 30 in /  1017.2 hPa NW 3 mph /  4.8 km/h 3 mph /  4.8 km/h 87 % 0 in /  0.0 mm
01:32 37.6 °F /  3.1 °C 34 °F /  1.1 °C 30 in /  1017.2 hPa Calm   3 mph /  4.8 km/h 87 % 0 in /  0.0 mm
01:37 37.6 °F /  3.1 °C 34 °F /  1.1 °C 30 in /  1017.2 hPa Calm   3 mph /  4.8 km/h 87 % 0 in /  0.0 mm
01:42 37.8 °F /  3.2 °C 34.2 °F /  1.2 °C 30 in /  1017.2 hPa Calm   3 mph /  4.8 km/h 87 % 0 in /  0.0 mm
01:52 37.8 °F /  3.2 °C 34.2 °F /  1.2 °C 30 in /  1017.2 hPa NNW 2 mph /  3.2 km/h 3 mph /  4.8 km/h 87 % 0 in /  0.0 mm
02:02 37.9 °F /  3.3 °C 34.3 °F /  1.3 °C 30 in /  1017.2 hPa NNW 1 mph /  1.6 km/h 5 mph /  8.0 km/h 87 % 0 in /  0.0 mm
02:12 37.8 °F /  3.2 °C 34 °F /  1.1 °C 30 in /  1017.2 hPa NNW 2 mph /  3.2 km/h 6 mph /  9.7 km/h 86 % 0 in /  0.0 mm
02:17 37.8 °F /  3.2 °C 34 °F /  1.1 °C 30 in /  1017.2 hPa NW 5 mph /  8.0 km/h 6 mph /  9.7 km/h 86 % 0 in /  0.0 mm
02:22 37.6 °F /  3.1 °C 33.8 °F /  1.0 °C 30 in /  1017.2 hPa NW 1 mph /  1.6 km/h 6 mph /  9.7 km/h 86 % 0 in /  0.0 mm
02:32 37.2 °F /  2.9 °C 33.8 °F /  1.0 °C 30 in /  1017.2 hPa Calm   5 mph /  8.0 km/h 87 % 0 in /  0.0 mm
02:37 37.2 °F /  2.9 °C 33.8 °F /  1.0 °C 30 in /  1017.2 hPa Calm   5 mph /  8.0 km/h 87 % 0 in /  0.0 mm
02:42 37 °F /  2.8 °C 33.8 °F /  1.0 °C 30 in /  1017.2 hPa Calm   4 mph /  6.4 km/h 88 % 0 in /  0.0 mm
02:47 37.2 °F /  2.9 °C 34 °F /  1.1 °C 30 in /  1017.2 hPa Calm   3 mph /  4.8 km/h 88 % 0 in /  0.0 mm
02:52 37.2 °F /  2.9 °C 34 °F /  1.1 °C 30 in /  1017.2 hPa Calm   3 mph /  4.8 km/h 88 % 0 in /  0.0 mm
03:02 37.2 °F /  2.9 °C 34 °F /  1.1 °C 30 in /  1017.2 hPa West 1 mph /  1.6 km/h 4 mph /  6.4 km/h 88 % 0 in /  0.0 mm
03:12 36.7 °F /  2.6 °C 33.4 °F /  0.8 °C 30 in /  1017.2 hPa Calm   3 mph /  4.8 km/h 88 % 0 in /  0.0 mm
03:17 36.3 °F /  2.4 °C 33.1 °F /  0.6 °C 30 in /  1017.2 hPa WNW 1 mph /  1.6 km/h 3 mph /  4.8 km/h 88 % 0 in /  0.0 mm
03:22 36.3 °F /  2.4 °C 33.4 °F /  0.8 °C 30 in /  1017.2 hPa NW 1 mph /  1.6 km/h 3 mph /  4.8 km/h 89 % 0 in /  0.0 mm
03:27 36.1 °F /  2.3 °C 33.3 °F /  0.7 °C 30 in /  1017.2 hPa Calm   3 mph /  4.8 km/h 89 % 0 in /  0.0 mm
03:32 36.1 °F /  2.3 °C 33.3 °F /  0.7 °C 30 in /  1017.2 hPa NW 1 mph /  1.6 km/h 2 mph /  3.2 km/h 89 % 0 in /  0.0 mm
03:42 36 °F /  2.2 °C 33.3 °F /  0.7 °C 30 in /  1017.2 hPa Calm   4 mph /  6.4 km/h 90 % 0 in /  0.0 mm
03:52 36.1 °F /  2.3 °C 33.4 °F /  0.8 °C 30 in /  1017.2 hPa Calm   4 mph /  6.4 km/h 90 % 0 in /  0.0 mm
03:57 36.1 °F /  2.3 °C 33.4 °F /  0.8 °C 30 in /  1017.2 hPa NNW 1 mph /  1.6 km/h 4 mph /  6.4 km/h 90 % 0 in /  0.0 mm
04:02 36.1 °F /  2.3 °C 33.4 °F /  0.8 °C 30 in /  1017.2 hPa North 2 mph /  3.2 km/h 4 mph /  6.4 km/h 90 % 0 in /  0.0 mm
04:12 36 °F /  2.2 °C 33.3 °F /  0.7 °C 30 in /  1017.2 hPa Calm   5 mph /  8.0 km/h 90 % 0 in /  0.0 mm
04:17 36 °F /  2.2 °C 33.3 °F /  0.7 °C 30 in /  1017.2 hPa NNW 1 mph /  1.6 km/h 4 mph /  6.4 km/h 90 % 0 in /  0.0 mm
04:22 36 °F /  2.2 °C 33.6 °F /  0.9 °C 30 in /  1017.2 hPa North 3 mph /  4.8 km/h 4 mph /  6.4 km/h 91 % 0 in /  0.0 mm
04:32 36.1 °F /  2.3 °C 33.8 °F /  1.0 °C 30 in /  1017.2 hPa NNW 1 mph /  1.6 km/h 4 mph /  6.4 km/h 91 % 0 in /  0.0 mm
04:42 36.1 °F /  2.3 °C 33.8 °F /  1.0 °C 30 in /  1017.2 hPa Calm   5 mph /  8.0 km/h 91 % 0 in /  0.0 mm
04:47 36.3 °F /  2.4 °C 34 °F /  1.1 °C 30 in /  1017.2 hPa NW 1 mph /  1.6 km/h 4 mph /  6.4 km/h 91 % 0 in /  0.0 mm
04:52 36.5 °F /  2.5 °C 33.8 °F /  1.0 °C 30 in /  1017.2 hPa NNW 1 mph /  1.6 km/h 4 mph /  6.4 km/h 90 % 0 in /  0.0 mm
04:57 36.5 °F /  2.5 °C 33.8 °F /  1.0 °C 30 in /  1017.2 hPa North 1 mph /  1.6 km/h 4 mph /  6.4 km/h 90 % 0 in /  0.0 mm
05:02 36.3 °F /  2.4 °C 33.6 °F /  0.9 °C 30 in /  1017.2 hPa NNW 2 mph /  3.2 km/h 5 mph /  8.0 km/h 90 % 0 in /  0.0 mm
05:12 36.3 °F /  2.4 °C 34 °F /  1.1 °C 30 in /  1017.2 hPa NW 2 mph /  3.2 km/h 4 mph /  6.4 km/h 91 % 0 in /  0.0 mm
05:17 36.3 °F /  2.4 °C 34 °F /  1.1 °C 30 in /  1017.2 hPa Calm   4 mph /  6.4 km/h 91 % 0 in /  0.0 mm
05:22 36.1 °F /  2.3 °C 33.8 °F /  1.0 °C 30 in /  1017.2 hPa Calm   4 mph /  6.4 km/h 91 % 0 in /  0.0 mm
05:32 36.1 °F /  2.3 °C 33.8 °F /  1.0 °C 30 in /  1017.2 hPa NW 1 mph /  1.6 km/h 2 mph /  3.2 km/h 91 % 0 in /  0.0 mm
05:42 36 °F /  2.2 °C 33.6 °F /  0.9 °C 30 in /  1017.2 hPa Calm   2 mph /  3.2 km/h 91 % 0 in /  0.0 mm
05:47 36 °F /  2.2 °C 33.6 °F /  0.9 °C 30 in /  1017.2 hPa WNW 1 mph /  1.6 km/h 2 mph /  3.2 km/h 91 % 0 in /  0.0 mm
05:52 36 °F /  2.2 °C 33.8 °F /  1.0 °C 30 in /  1017.2 hPa NNW 3 mph /  4.8 km/h 3 mph /  4.8 km/h 92 % 0 in /  0.0 mm
05:57 36 °F /  2.2 °C 33.8 °F /  1.0 °C 30 in /  1017.2 hPa NW 1 mph /  1.6 km/h 2 mph /  3.2 km/h 92 % 0 in /  0.0 mm
06:02 36.1 °F /  2.3 °C 34 °F /  1.1 °C 30 in /  1017.2 hPa NW 1 mph /  1.6 km/h 4 mph /  6.4 km/h 92 % 0 in /  0.0 mm
06:12 36.1 °F /  2.3 °C 34 °F /  1.1 °C 30 in /  1017.2 hPa Calm   4 mph /  6.4 km/h 92 % 0 in /  0.0 mm
06:17 36.1 °F /  2.3 °C 34 °F /  1.1 °C 30.1 in /  1017.5 hPa NNW 1 mph /  1.6 km/h 4 mph /  6.4 km/h 92 % 0 in /  0.0 mm
06:22 36.1 °F /  2.3 °C 34 °F /  1.1 °C 30.1 in /  1017.5 hPa NNW 1 mph /  1.6 km/h 3 mph /  4.8 km/h 92 % 0 in /  0.0 mm
06:32 36.3 °F /  2.4 °C 34.2 °F /  1.2 °C 30.1 in /  1017.5 hPa North 2 mph /  3.2 km/h 3 mph /  4.8 km/h 92 % 0 in /  0.0 mm
06:37 36.3 °F /  2.4 °C 34.2 °F /  1.2 °C 30.1 in /  1017.5 hPa Calm   4 mph /  6.4 km/h 92 % 0 in /  0.0 mm
06:42 36.3 °F /  2.4 °C 34.2 °F /  1.2 °C 30.1 in /  1017.5 hPa Calm   4 mph /  6.4 km/h 92 % 0 in /  0.0 mm
06:47 36.1 °F /  2.3 °C 33.8 °F /  1.0 °C 30.1 in /  1017.5 hPa WNW 1 mph /  1.6 km/h 4 mph /  6.4 km/h 91 % 0 in /  0.0 mm
06:52 35.8 °F /  2.1 °C 33.4 °F /  0.8 °C 30.1 in /  1017.5 hPa WNW 1 mph /  1.6 km/h 2 mph /  3.2 km/h 91 % 0 in /  0.0 mm
07:02 35.8 °F /  2.1 °C 33.6 °F /  0.9 °C 30.1 in /  1017.8 hPa WNW 1 mph /  1.6 km/h 2 mph /  3.2 km/h 92 % 0 in /  0.0 mm
07:12 35.6 °F /  2.0 °C 33.4 °F /  0.8 °C 30.1 in /  1017.8 hPa Calm   3 mph /  4.8 km/h 92 % 0 in /  0.0 mm
07:17 35.8 °F /  2.1 °C 34 °F /  1.1 °C 30.1 in /  1017.8 hPa Calm   3 mph /  4.8 km/h 93 % 0 in /  0.0 mm
07:22 35.8 °F /  2.1 °C 34 °F /  1.1 °C 30.1 in /  1017.8 hPa Calm   2 mph /  3.2 km/h 93 % 0 in /  0.0 mm
07:27 36 °F /  2.2 °C 34.2 °F /  1.2 °C 30.1 in /  1017.8 hPa Calm   2 mph /  3.2 km/h 93 % 0 in /  0.0 mm
07:32 36.1 °F /  2.3 °C 34.3 °F /  1.3 °C 30.1 in /  1017.8 hPa NW 2 mph /  3.2 km/h 5 mph /  8.0 km/h 93 % 0 in /  0.0 mm
07:37 36.3 °F /  2.4 °C 34.5 °F /  1.4 °C 30.1 in /  1017.8 hPa Calm   5 mph /  8.0 km/h 93 % 0 in /  0.0 mm
07:42 36.3 °F /  2.4 °C 34.5 °F /  1.4 °C 30.1 in /  1017.8 hPa NW 1 mph /  1.6 km/h 6 mph /  9.7 km/h 93 % 0 in /  0.0 mm
07:47 36.5 °F /  2.5 °C 34.7 °F /  1.5 °C 30.1 in /  1017.8 hPa NW 1 mph /  1.6 km/h 6 mph /  9.7 km/h 93 % 0 in /  0.0 mm
07:52 36.7 °F /  2.6 °C 34.9 °F /  1.6 °C 30.1 in /  1017.8 hPa North 3 mph /  4.8 km/h 7 mph /  11.3 km/h 93 % 0 in /  0.0 mm
07:57 36.9 °F /  2.7 °C 35.1 °F /  1.7 °C 30.1 in /  1017.8 hPa North 3 mph /  4.8 km/h 7 mph /  11.3 km/h 93 % 0 in /  0.0 mm
08:02 37 °F /  2.8 °C 35.2 °F /  1.8 °C 30.1 in /  1017.8 hPa Calm   6 mph /  9.7 km/h 93 % 0 in /  0.0 mm
08:12 37.4 °F /  3.0 °C 35.2 °F /  1.8 °C 30.1 in /  1017.8 hPa NNW 3 mph /  4.8 km/h 6 mph /  9.7 km/h 92 % 0 in /  0.0 mm
08:17 37.6 °F /  3.1 °C 35.4 °F /  1.9 °C 30.1 in /  1017.8 hPa NNE 2 mph /  3.2 km/h 6 mph /  9.7 km/h 92 % 0 in /  0.0 mm
08:22 37.8 °F /  3.2 °C 35.6 °F /  2.0 °C 30.1 in /  1017.8 hPa NNE 1 mph /  1.6 km/h 6 mph /  9.7 km/h 92 % 0 in /  0.0 mm
08:32 38.3 °F /  3.5 °C 36 °F /  2.2 °C 30.1 in /  1018.2 hPa NNW 1 mph /  1.6 km/h 6 mph /  9.7 km/h 91 % 0 in /  0.0 mm
08:42 39.4 °F /  4.1 °C 36.7 °F /  2.6 °C 30.1 in /  1018.2 hPa NNW 3 mph /  4.8 km/h 6 mph /  9.7 km/h 90 % 0 in /  0.0 mm
08:52 40.3 °F /  4.6 °C 36.7 °F /  2.6 °C 30.1 in /  1018.2 hPa North 4 mph /  6.4 km/h 9 mph /  14.5 km/h 87 % 0 in /  0.0 mm
09:02 39.9 °F /  4.4 °C 36.1 °F /  2.3 °C 30.1 in /  1018.5 hPa NW 4 mph /  6.4 km/h 11 mph /  17.7 km/h 86 % 0 in /  0.0 mm
09:12 39.9 °F /  4.4 °C 36.3 °F /  2.4 °C 30.1 in /  1018.5 hPa NNW 2 mph /  3.2 km/h 8 mph /  12.9 km/h 87 % 0 in /  0.0 mm
09:17 40.1 °F /  4.5 °C 36.3 °F /  2.4 °C 30.1 in /  1018.5 hPa North 4 mph /  6.4 km/h 8 mph /  12.9 km/h 86 % 0 in /  0.0 mm
09:22 39.9 °F /  4.4 °C 36.1 °F /  2.3 °C 30.1 in /  1018.5 hPa NE 5 mph /  8.0 km/h 8 mph /  12.9 km/h 86 % 0 in /  0.0 mm
09:32 39.9 °F /  4.4 °C 36.3 °F /  2.4 °C 30.1 in /  1018.5 hPa NNW 5 mph /  8.0 km/h 8 mph /  12.9 km/h 87 % 0 in /  0.0 mm
09:42 40.3 °F /  4.6 °C 36.5 °F /  2.5 °C 30.1 in /  1018.5 hPa North 4 mph /  6.4 km/h 7 mph /  11.3 km/h 86 % 0 in /  0.0 mm
09:52 40.6 °F /  4.8 °C 36.9 °F /  2.7 °C 30.1 in /  1018.5 hPa Calm   10 mph /  16.1 km/h 86 % 0 in /  0.0 mm
10:02 41.2 °F /  5.1 °C 37 °F /  2.8 °C 30.1 in /  1018.5 hPa Calm   8 mph /  12.9 km/h 85 % 0 in /  0.0 mm
10:12 41.9 °F /  5.5 °C 36.9 °F /  2.7 °C 30.1 in /  1018.5 hPa NNE 2 mph /  3.2 km/h 8 mph /  12.9 km/h 82 % 0 in /  0.0 mm
10:17 42.3 °F /  5.7 °C 37.2 °F /  2.9 °C 30.1 in /  1018.5 hPa NE 4 mph /  6.4 km/h 8 mph /  12.9 km/h 82 % 0 in /  0.0 mm
10:22 42.4 °F /  5.8 °C 36.7 °F /  2.6 °C 30.1 in /  1018.5 hPa North 5 mph /  8.0 km/h 7 mph /  11.3 km/h 80 % 0 in /  0.0 mm
10:32 42.6 °F /  5.9 °C 36.9 °F /  2.7 °C 30.1 in /  1018.5 hPa NNW 2 mph /  3.2 km/h 6 mph /  9.7 km/h 80 % 0 in /  0.0 mm
10:37 43 °F /  6.1 °C 36.9 °F /  2.7 °C 30.1 in /  1018.5 hPa NNW 4 mph /  6.4 km/h 6 mph /  9.7 km/h 79 % 0 in /  0.0 mm
10:42 43.2 °F /  6.2 °C 37 °F /  2.8 °C 30.1 in /  1018.5 hPa NNW 4 mph /  6.4 km/h 6 mph /  9.7 km/h 79 % 0 in /  0.0 mm
10:47 43.5 °F /  6.4 °C 37.4 °F /  3.0 °C 30.1 in /  1018.5 hPa West 1 mph /  1.6 km/h 6 mph /  9.7 km/h 79 % 0 in /  0.0 mm
10:52 44.1 °F /  6.7 °C 37.4 °F /  3.0 °C 30.1 in /  1018.5 hPa NNE 2 mph /  3.2 km/h 6 mph /  9.7 km/h 77 % 0 in /  0.0 mm
10:57 44.1 °F /  6.7 °C 37 °F /  2.8 °C 30.1 in /  1018.5 hPa NW 2 mph /  3.2 km/h 6 mph /  9.7 km/h 76 % 0 in /  0.0 mm
11:02 44.4 °F /  6.9 °C 37.4 °F /  3.0 °C 30.1 in /  1018.8 hPa NNW 8 mph /  12.9 km/h 8 mph /  12.9 km/h 76 % 0 in /  0.0 mm
11:12 45.3 °F /  7.4 °C 38.1 °F /  3.4 °C 30.1 in /  1018.5 hPa WNW 2 mph /  3.2 km/h 10 mph /  16.1 km/h 76 % 0 in /  0.0 mm
11:22 45.7 °F /  7.6 °C 37.9 °F /  3.3 °C 30.1 in /  1018.5 hPa North 3 mph /  4.8 km/h 11 mph /  17.7 km/h 74 % 0 in /  0.0 mm
11:32 45.7 °F /  7.6 °C 37.6 °F /  3.1 °C 30.1 in /  1018.5 hPa North 7 mph /  11.3 km/h 14 mph /  22.5 km/h 73 % 0 in /  0.0 mm
11:37 46 °F /  7.8 °C 36.9 °F /  2.7 °C 30.1 in /  1018.5 hPa WSW 4 mph /  6.4 km/h 14 mph /  22.5 km/h 70 % 0 in /  0.0 mm
11:42 46 °F /  7.8 °C 37.6 °F /  3.1 °C 30.1 in /  1018.5 hPa NNW 10 mph /  16.1 km/h 14 mph /  22.5 km/h 72 % 0 in /  0.0 mm
11:52 45.7 °F /  7.6 °C 36.5 °F /  2.5 °C 30.1 in /  1018.2 hPa NE 4 mph /  6.4 km/h 13 mph /  20.9 km/h 70 % 0 in /  0.0 mm
12:02 45.9 °F /  7.7 °C 36.3 °F /  2.4 °C 30.1 in /  1018.2 hPa NNE 9 mph /  14.5 km/h 15 mph /  24.1 km/h 69 % 0 in /  0.0 mm
12:12 46.2 °F /  7.9 °C 35.4 °F /  1.9 °C 30.1 in /  1018.2 hPa North 6 mph /  9.7 km/h 15 mph /  24.1 km/h 66 % 0 in /  0.0 mm
12:17 46.2 °F /  7.9 °C 36.3 °F /  2.4 °C 30.1 in /  1018.2 hPa NNE 3 mph /  4.8 km/h 15 mph /  24.1 km/h 68 % 0 in /  0.0 mm
12:22 45.9 °F /  7.7 °C 35.6 °F /  2.0 °C 30.1 in /  1018.2 hPa North 3 mph /  4.8 km/h 15 mph /  24.1 km/h 67 % 0 in /  0.0 mm
12:32 47.5 °F /  8.6 °C 35.6 °F /  2.0 °C 30.1 in /  1017.8 hPa NE 10 mph /  16.1 km/h 15 mph /  24.1 km/h 63 % 0 in /  0.0 mm
12:37 47.8 °F /  8.8 °C 35.4 °F /  1.9 °C 30.1 in /  1017.8 hPa NNW 7 mph /  11.3 km/h 14 mph /  22.5 km/h 62 % 0 in /  0.0 mm
12:42 48 °F /  8.9 °C 34.9 °F /  1.6 °C 30.1 in /  1018.2 hPa North 9 mph /  14.5 km/h 14 mph /  22.5 km/h 60 % 0 in /  0.0 mm
12:47 48.6 °F /  9.2 °C 34.5 °F /  1.4 °C 30.1 in /  1017.8 hPa North 2 mph /  3.2 km/h 14 mph /  22.5 km/h 58 % 0 in /  0.0 mm
12:57 48.9 °F /  9.4 °C 34.9 °F /  1.6 °C 30.1 in /  1017.8 hPa NNW 8 mph /  12.9 km/h 17 mph /  27.4 km/h 58 % 0 in /  0.0 mm
13:02 47.7 °F /  8.7 °C 33.6 °F /  0.9 °C 30.1 in /  1018.2 hPa NNW 11 mph /  17.7 km/h 17 mph /  27.4 km/h 58 % 0 in /  0.0 mm
13:12 46 °F /  7.8 °C 34.2 °F /  1.2 °C 30.1 in /  1018.2 hPa NNW 6 mph /  9.7 km/h 18 mph /  29.0 km/h 63 % 0 in /  0.0 mm
13:17 45.9 °F /  7.7 °C 32.7 °F /  0.4 °C 30.1 in /  1018.2 hPa NW 4 mph /  6.4 km/h 18 mph /  29.0 km/h 60 % 0 in /  0.0 mm
13:22 46 °F /  7.8 °C 32.5 °F /  0.3 °C 30.1 in /  1018.2 hPa WNW 6 mph /  9.7 km/h 16 mph /  25.7 km/h 59 % 0 in /  0.0 mm
13:32 48 °F /  8.9 °C 33.1 °F /  0.6 °C 30.1 in /  1017.8 hPa NNW 5 mph /  8.0 km/h 13 mph /  20.9 km/h 56 % 0 in /  0.0 mm
13:37 48.7 °F /  9.3 °C 31.8 °F /  -0.1 °C 30.1 in /  1017.8 hPa NW 3 mph /  4.8 km/h 13 mph /  20.9 km/h 52 % 0 in /  0.0 mm
13:42 48.9 °F /  9.4 °C 32.5 °F /  0.3 °C 30.1 in /  1017.8 hPa North 9 mph /  14.5 km/h 15 mph /  24.1 km/h 53 % 0 in /  0.0 mm
13:47 49.5 °F /  9.7 °C 34.9 °F /  1.6 °C 30.1 in /  1017.8 hPa NNW 9 mph /  14.5 km/h 16 mph /  25.7 km/h 57 % 0 in /  0.0 mm
13:52 49.6 °F /  9.8 °C 33.6 °F /  0.9 °C 30.1 in /  1017.8 hPa NNW 6 mph /  9.7 km/h 16 mph /  25.7 km/h 54 % 0 in /  0.0 mm
14:02 48.4 °F /  9.1 °C 31.6 °F /  -0.2 °C 30.1 in /  1017.8 hPa North 7 mph /  11.3 km/h 13 mph /  20.9 km/h 52 % 0 in /  0.0 mm
14:12 47.8 °F /  8.8 °C 31.5 °F /  -0.3 °C 30.1 in /  1017.8 hPa North 15 mph /  24.1 km/h 15 mph /  24.1 km/h 53 % 0 in /  0.0 mm
14:17 48.4 °F /  9.1 °C 32.9 °F /  0.5 °C 30.1 in /  1017.8 hPa NNW 11 mph /  17.7 km/h 19 mph /  30.6 km/h 55 % 0 in /  0.0 mm
14:22 48.7 °F /  9.3 °C 31.5 °F /  -0.3 °C 30.1 in /  1017.8 hPa WNW 10 mph /  16.1 km/h 19 mph /  30.6 km/h 51 % 0 in /  0.0 mm
14:32 50.5 °F /  10.3 °C 33.1 °F /  0.6 °C 30.1 in /  1017.5 hPa NE 6 mph /  9.7 km/h 16 mph /  25.7 km/h 51 % 0 in /  0.0 mm
14:37 51.4 °F /  10.8 °C 32.4 °F /  0.2 °C 30.1 in /  1017.5 hPa NW 5 mph /  8.0 km/h 12 mph /  19.3 km/h 48 % 0 in /  0.0 mm
14:42 51.1 °F /  10.6 °C 32.5 °F /  0.3 °C 30.1 in /  1017.5 hPa WNW 8 mph /  12.9 km/h 12 mph /  19.3 km/h 49 % 0 in /  0.0 mm
14:47 50 °F /  10.0 °C 30.6 °F /  -0.8 °C 30.1 in /  1017.5 hPa NE 3 mph /  4.8 km/h 17 mph /  27.4 km/h 47 % 0 in /  0.0 mm
14:52 49.5 °F /  9.7 °C 30.6 °F /  -0.8 °C 30.1 in /  1017.5 hPa NNW 11 mph /  17.7 km/h 17 mph /  27.4 km/h 48 % 0 in /  0.0 mm
15:02 50.5 °F /  10.3 °C 29.5 °F /  -1.4 °C 30.1 in /  1017.5 hPa NNW 15 mph /  24.1 km/h 16 mph /  25.7 km/h 44 % 0 in /  0.0 mm
15:12 49.5 °F /  9.7 °C 30 °F /  -1.1 °C 30.1 in /  1017.5 hPa NNW 7 mph /  11.3 km/h 16 mph /  25.7 km/h 47 % 0 in /  0.0 mm
15:17 49.5 °F /  9.7 °C 29.5 °F /  -1.4 °C 30.1 in /  1017.5 hPa NNE 2 mph /  3.2 km/h 17 mph /  27.4 km/h 46 % 0 in /  0.0 mm
15:22 50.7 °F /  10.4 °C 29.1 °F /  -1.6 °C 30 in /  1017.2 hPa WNW 7 mph /  11.3 km/h 16 mph /  25.7 km/h 43 % 0 in /  0.0 mm
15:27 51.1 °F /  10.6 °C 30.6 °F /  -0.8 °C 30 in /  1017.2 hPa NNW 13 mph /  20.9 km/h 14 mph /  22.5 km/h 45 % 0 in /  0.0 mm
15:32 50.5 °F /  10.3 °C 31.1 °F /  -0.5 °C 30 in /  1017.2 hPa NNE 15 mph /  24.1 km/h 15 mph /  24.1 km/h 47 % 0 in /  0.0 mm
15:42 49.5 °F /  9.7 °C 30 °F /  -1.1 °C 30 in /  1017.2 hPa NNW 5 mph /  8.0 km/h 18 mph /  29.0 km/h 47 % 0 in /  0.0 mm
15:47 50.5 °F /  10.3 °C 32.5 °F /  0.3 °C 30 in /  1017.2 hPa NNE 4 mph /  6.4 km/h 18 mph /  29.0 km/h 50 % 0 in /  0.0 mm
15:52 51.3 °F /  10.7 °C 31.1 °F /  -0.5 °C 30 in /  1017.2 hPa North 7 mph /  11.3 km/h 18 mph /  29.0 km/h 46 % 0 in /  0.0 mm
16:02 51.8 °F /  11.0 °C 31.1 °F /  -0.5 °C 30 in /  1016.8 hPa NNW 11 mph /  17.7 km/h 12 mph /  19.3 km/h 45 % 0 in /  0.0 mm
16:12 49.8 °F /  9.9 °C 31.5 °F /  -0.3 °C 30 in /  1017.2 hPa NW 11 mph /  17.7 km/h 14 mph /  22.5 km/h 49 % 0 in /  0.0 mm
16:17 49.5 °F /  9.7 °C 31.1 °F /  -0.5 °C 30 in /  1017.2 hPa NE 10 mph /  16.1 km/h 16 mph /  25.7 km/h 49 % 0 in /  0.0 mm
16:22 49.3 °F /  9.6 °C 30.9 °F /  -0.6 °C 30 in /  1017.2 hPa NE 12 mph /  19.3 km/h 19 mph /  30.6 km/h 49 % 0 in /  0.0 mm
16:27 48.7 °F /  9.3 °C 30.4 °F /  -0.9 °C 30 in /  1017.2 hPa NNE 9 mph /  14.5 km/h 19 mph /  30.6 km/h 49 % 0 in /  0.0 mm
16:32 48.7 °F /  9.3 °C 29.8 °F /  -1.2 °C 30 in /  1017.2 hPa North 7 mph /  11.3 km/h 19 mph /  30.6 km/h 48 % 0 in /  0.0 mm
16:42 48.7 °F /  9.3 °C 30.9 °F /  -0.6 °C 30 in /  1016.8 hPa NNE 12 mph /  19.3 km/h 18 mph /  29.0 km/h 50 % 0 in /  0.0 mm
16:52 49.3 °F /  9.6 °C 31.5 °F /  -0.3 °C 30 in /  1016.8 hPa North 6 mph /  9.7 km/h 15 mph /  24.1 km/h 50 % 0 in /  0.0 mm
16:57 50.2 °F /  10.1 °C 31.8 °F /  -0.1 °C 30 in /  1016.8 hPa NNW 7 mph /  11.3 km/h 13 mph /  20.9 km/h 49 % 0 in /  0.0 mm
17:02 50.4 °F /  10.2 °C 29.8 °F /  -1.2 °C 30 in /  1016.8 hPa NE 6 mph /  9.7 km/h 13 mph /  20.9 km/h 45 % 0 in /  0.0 mm
17:12 51.1 °F /  10.6 °C 31.1 °F /  -0.5 °C 30 in /  1016.8 hPa NNE 3 mph /  4.8 km/h 18 mph /  29.0 km/h 46 % 0 in /  0.0 mm
17:17 50.9 °F /  10.5 °C 30.9 °F /  -0.6 °C 30 in /  1016.8 hPa NNE 3 mph /  4.8 km/h 16 mph /  25.7 km/h 46 % 0 in /  0.0 mm
17:22 51.3 °F /  10.7 °C 29.5 °F /  -1.4 °C 30 in /  1016.5 hPa NNW 3 mph /  4.8 km/h 16 mph /  25.7 km/h 43 % 0 in /  0.0 mm
17:27 51.6 °F /  10.9 °C 29.3 °F /  -1.5 °C 30 in /  1016.5 hPa NNE 4 mph /  6.4 km/h 11 mph /  17.7 km/h 42 % 0 in /  0.0 mm
17:32 52 °F /  11.1 °C 28.9 °F /  -1.7 °C 30 in /  1016.5 hPa NNE 5 mph /  8.0 km/h 10 mph /  16.1 km/h 41 % 0 in /  0.0 mm
17:42 51.6 °F /  10.9 °C 29.8 °F /  -1.2 °C 30 in /  1016.5 hPa NE 5 mph /  8.0 km/h 12 mph /  19.3 km/h 43 % 0 in /  0.0 mm
17:52 50.5 °F /  10.3 °C 30.6 °F /  -0.8 °C 30 in /  1016.8 hPa North 11 mph /  17.7 km/h 17 mph /  27.4 km/h 46 % 0 in /  0.0 mm
17:57 50.2 °F /  10.1 °C 28.6 °F /  -1.9 °C 30 in /  1016.5 hPa NNW 7 mph /  11.3 km/h 17 mph /  27.4 km/h 43 % 0 in /  0.0 mm
18:02 50 °F /  10.0 °C 28.9 °F /  -1.7 °C 30 in /  1016.8 hPa North 5 mph /  8.0 km/h 17 mph /  27.4 km/h 44 % 0 in /  0.0 mm
18:12 49.8 °F /  9.9 °C 29.8 °F /  -1.2 °C 30 in /  1016.8 hPa North 7 mph /  11.3 km/h 19 mph /  30.6 km/h 46 % 0 in /  0.0 mm
18:17 49.8 °F /  9.9 °C 28.8 °F /  -1.8 °C 30 in /  1016.8 hPa NNW 6 mph /  9.7 km/h 12 mph /  19.3 km/h 44 % 0 in /  0.0 mm
18:22 49.5 °F /  9.7 °C 31.6 °F /  -0.2 °C 30 in /  1016.8 hPa NNE 7 mph /  11.3 km/h 12 mph /  19.3 km/h 50 % 0 in /  0.0 mm
18:32 48 °F /  8.9 °C 33.1 °F /  0.6 °C 30 in /  1017.2 hPa West 6 mph /  9.7 km/h 17 mph /  27.4 km/h 56 % 0 in /  0.0 mm
18:42 47.5 °F /  8.6 °C 33.1 °F /  0.6 °C 30 in /  1017.2 hPa NNW 8 mph /  12.9 km/h 18 mph /  29.0 km/h 57 % 0 in /  0.0 mm
18:52 47.8 °F /  8.8 °C 33.8 °F /  1.0 °C 30 in /  1017.2 hPa WNW 1 mph /  1.6 km/h 16 mph /  25.7 km/h 58 % 0 in /  0.0 mm
18:57 47.7 °F /  8.7 °C 32.7 °F /  0.4 °C 30 in /  1017.2 hPa NW 10 mph /  16.1 km/h 16 mph /  25.7 km/h 56 % 0 in /  0.0 mm
19:02 46.9 °F /  8.3 °C 32.9 °F /  0.5 °C 30 in /  1017.2 hPa WNW 4 mph /  6.4 km/h 16 mph /  25.7 km/h 58 % 0 in /  0.0 mm
19:12 46.6 °F /  8.1 °C 33.8 °F /  1.0 °C 30 in /  1017.2 hPa WNW 4 mph /  6.4 km/h 14 mph /  22.5 km/h 61 % 0 in /  0.0 mm
19:17 47.1 °F /  8.4 °C 33.4 °F /  0.8 °C 30 in /  1017.2 hPa North 4 mph /  6.4 km/h 13 mph /  20.9 km/h 59 % 0 in /  0.0 mm
19:22 47.7 °F /  8.7 °C 33.6 °F /  0.9 °C 30 in /  1017.2 hPa NW 8 mph /  12.9 km/h 11 mph /  17.7 km/h 58 % 0 in /  0.0 mm
19:27 47.8 °F /  8.8 °C 32.9 °F /  0.5 °C 30 in /  1017.2 hPa NW 5 mph /  8.0 km/h 11 mph /  17.7 km/h 56 % 0 in /  0.0 mm
19:32 48 °F /  8.9 °C 32.2 °F /  0.1 °C 30 in /  1017.2 hPa NW 5 mph /  8.0 km/h 11 mph /  17.7 km/h 54 % 0 in /  0.0 mm
19:42 48 °F /  8.9 °C 32.2 °F /  0.1 °C 30 in /  1017.2 hPa West 7 mph /  11.3 km/h 12 mph /  19.3 km/h 54 % 0 in /  0.0 mm
19:47 48 °F /  8.9 °C 32.2 °F /  0.1 °C 30 in /  1017.2 hPa WNW 2 mph /  3.2 km/h 10 mph /  16.1 km/h 54 % 0 in /  0.0 mm
19:52 48 °F /  8.9 °C 32.2 °F /  0.1 °C 30 in /  1017.2 hPa WNW 2 mph /  3.2 km/h 10 mph /  16.1 km/h 54 % 0 in /  0.0 mm
19:57 48 °F /  8.9 °C 31.3 °F /  -0.4 °C 30.1 in /  1017.5 hPa NW 5 mph /  8.0 km/h 9 mph /  14.5 km/h 52 % 0 in /  0.0 mm
20:02 47.8 °F /  8.8 °C 30.6 °F /  -0.8 °C 30 in /  1017.2 hPa NW 7 mph /  11.3 km/h 11 mph /  17.7 km/h 51 % 0 in /  0.0 mm
20:12 47.5 °F /  8.6 °C 30.2 °F /  -1.0 °C 30.1 in /  1017.5 hPa NW 3 mph /  4.8 km/h 14 mph /  22.5 km/h 51 % 0 in /  0.0 mm
20:17 47.3 °F /  8.5 °C 30 °F /  -1.1 °C 30.1 in /  1017.5 hPa NNW 4 mph /  6.4 km/h 13 mph /  20.9 km/h 51 % 0 in /  0.0 mm
20:22 47.1 °F /  8.4 °C 29.8 °F /  -1.2 °C 30.1 in /  1017.5 hPa North 4 mph /  6.4 km/h 13 mph /  20.9 km/h 51 % 0 in /  0.0 mm
20:32 46 °F /  7.8 °C 29.5 °F /  -1.4 °C 30.1 in /  1017.5 hPa NNW 9 mph /  14.5 km/h 12 mph /  19.3 km/h 52 % 0 in /  0.0 mm
20:37 45.7 °F /  7.6 °C 29.1 °F /  -1.6 °C 30.1 in /  1017.5 hPa NW 1 mph /  1.6 km/h 11 mph /  17.7 km/h 52 % 0 in /  0.0 mm
20:42 45.3 °F /  7.4 °C 29.1 °F /  -1.6 °C 30.1 in /  1017.8 hPa NW 2 mph /  3.2 km/h 9 mph /  14.5 km/h 53 % 0 in /  0.0 mm
20:47 45.1 °F /  7.3 °C 29.5 °F /  -1.4 °C 30.1 in /  1017.8 hPa NNW 4 mph /  6.4 km/h 9 mph /  14.5 km/h 54 % 0 in /  0.0 mm
20:57 44.4 °F /  6.9 °C 31.5 °F /  -0.3 °C 30.1 in /  1017.8 hPa North 4 mph /  6.4 km/h 11 mph /  17.7 km/h 60 % 0 in /  0.0 mm
21:02 44.1 °F /  6.7 °C 32.4 °F /  0.2 °C 30.1 in /  1017.8 hPa NW 4 mph /  6.4 km/h 12 mph /  19.3 km/h 63 % 0 in /  0.0 mm
21:12 43 °F /  6.1 °C 33.1 °F /  0.6 °C 30.1 in /  1017.8 hPa NW 5 mph /  8.0 km/h 12 mph /  19.3 km/h 68 % 0 in /  0.0 mm
21:17 42.4 °F /  5.8 °C 33.1 °F /  0.6 °C 30.1 in /  1018.2 hPa WNW 4 mph /  6.4 km/h 9 mph /  14.5 km/h 69 % 0 in /  0.0 mm
21:22 42.1 °F /  5.6 °C 33.4 °F /  0.8 °C 30.1 in /  1018.2 hPa NW 1 mph /  1.6 km/h 9 mph /  14.5 km/h 71 % 0 in /  0.0 mm
21:27 41.7 °F /  5.4 °C 33.4 °F /  0.8 °C 30.1 in /  1018.2 hPa WNW 2 mph /  3.2 km/h 8 mph /  12.9 km/h 72 % 0 in /  0.0 mm
21:32 41.4 °F /  5.2 °C 33.4 °F /  0.8 °C 30.1 in /  1018.2 hPa Calm   8 mph /  12.9 km/h 73 % 0 in /  0.0 mm
21:42 40.8 °F /  4.9 °C 33.3 °F /  0.7 °C 30.1 in /  1018.2 hPa West 3 mph /  4.8 km/h 7 mph /  11.3 km/h 74 % 0 in /  0.0 mm
21:47 40.6 °F /  4.8 °C 33.3 °F /  0.7 °C 30.1 in /  1018.5 hPa WNW 2 mph /  3.2 km/h 6 mph /  9.7 km/h 75 % 0 in /  0.0 mm
21:57 40.6 °F /  4.8 °C 33.3 °F /  0.7 °C 30.1 in /  1018.5 hPa WNW 1 mph /  1.6 km/h 5 mph /  8.0 km/h 75 % 0 in /  0.0 mm
22:02 40.6 °F /  4.8 °C 33.3 °F /  0.7 °C 30.1 in /  1018.5 hPa NW 1 mph /  1.6 km/h 5 mph /  8.0 km/h 75 % 0 in /  0.0 mm
22:07 40.6 °F /  4.8 °C 33.3 °F /  0.7 °C 30.1 in /  1018.5 hPa Calm   5 mph /  8.0 km/h 75 % 0 in /  0.0 mm
22:17 40.6 °F /  4.8 °C 33.6 °F /  0.9 °C 30.1 in /  1018.5 hPa NNW 1 mph /  1.6 km/h 3 mph /  4.8 km/h 76 % 0 in /  0.0 mm
22:22 40.6 °F /  4.8 °C 34 °F /  1.1 °C 30.1 in /  1018.5 hPa NW 1 mph /  1.6 km/h 3 mph /  4.8 km/h 77 % 0 in /  0.0 mm
22:32 40.5 °F /  4.7 °C 33.8 °F /  1.0 °C 30.1 in /  1018.5 hPa NW 2 mph /  3.2 km/h 3 mph /  4.8 km/h 77 % 0 in /  0.0 mm
22:37 40.5 °F /  4.7 °C 33.8 °F /  1.0 °C 30.1 in /  1018.5 hPa NNW 2 mph /  3.2 km/h 4 mph /  6.4 km/h 77 % 0 in /  0.0 mm
22:42 40.5 °F /  4.7 °C 33.8 °F /  1.0 °C 30.1 in /  1018.5 hPa WNW 2 mph /  3.2 km/h 5 mph /  8.0 km/h 77 % 0 in /  0.0 mm
22:47 40.5 °F /  4.7 °C 33.8 °F /  1.0 °C 30.1 in /  1018.5 hPa NNW 2 mph /  3.2 km/h 6 mph /  9.7 km/h 77 % 0 in /  0.0 mm
22:52 40.5 °F /  4.7 °C 33.8 °F /  1.0 °C 30.1 in /  1018.5 hPa WNW 5 mph /  8.0 km/h 6 mph /  9.7 km/h 77 % 0 in /  0.0 mm
22:57 40.5 °F /  4.7 °C 33.8 °F /  1.0 °C 30.1 in /  1018.5 hPa WNW 1 mph /  1.6 km/h 6 mph /  9.7 km/h 77 % 0 in /  0.0 mm
23:02 40.3 °F /  4.6 °C 33.6 °F /  0.9 °C 30.1 in /  1018.5 hPa NW 1 mph /  1.6 km/h 6 mph /  9.7 km/h 77 % 0 in /  0.0 mm
23:12 40.5 °F /  4.7 °C 33.8 °F /  1.0 °C 30.1 in /  1018.5 hPa NNW 2 mph /  3.2 km/h 6 mph /  9.7 km/h 77 % 0 in /  0.0 mm
23:17 40.5 °F /  4.7 °C 33.8 °F /  1.0 °C 30.1 in /  1018.5 hPa WNW 2 mph /  3.2 km/h 4 mph /  6.4 km/h 77 % 0 in /  0.0 mm
23:22 40.3 °F /  4.6 °C 33.6 °F /  0.9 °C 30.1 in /  1018.5 hPa NW 1 mph /  1.6 km/h 5 mph /  8.0 km/h 77 % 0 in /  0.0 mm
23:32 39.9 °F /  4.4 °C 33.6 °F /  0.9 °C 30.1 in /  1018.5 hPa NW 1 mph /  1.6 km/h 5 mph /  8.0 km/h 78 % 0 in /  0.0 mm
23:37 39.7 °F /  4.3 °C 33.4 °F /  0.8 °C 30.1 in /  1018.5 hPa WNW 4 mph /  6.4 km/h 4 mph /  6.4 km/h 78 % 0 in /  0.0 mm
23:42 39.6 °F /  4.2 °C 33.3 °F /  0.7 °C 30.1 in /  1018.5 hPa WNW 1 mph /  1.6 km/h 2 mph /  3.2 km/h 78 % 0 in /  0.0 mm
23:52 39.4 °F /  4.1 °C 33.1 °F /  0.6 °C 30.1 in /  1018.5 hPa WNW 3 mph /  4.8 km/h 4 mph /  6.4 km/h 78 % 0 in /  0.0 mm
23:57 39.6 °F /  4.2 °C 32.9 °F /  0.5 °C 30.1 in /  1018.5 hPa WNW 5 mph /  8.0 km/h 7 mph /  11.3 km/h 77 % 0 in /  0.0 mm
Meteo18
Compliments of Weather Underground - 4 mb

Script developed by  Jim McMurry - jmcmurry@mwt.net Adapted for the template by  Wim van der Kuil - Leuven-Template.eu

You find our weather info also at:

European Weather Network

Weather Underground

Equipment we use:

Weather-station
Davis Vue

Weather-program
Meteohub

Weather-server
Raspberry PI 2 B+

Provider
1 and 1

Davis Vue

Meteohub

Raspberry PI 2 B+

1 and 1